• Join FlightAware (Why Join?)
  • Login
  • US Flag 
10:41PM EST


 

Airport Tracker/Info


-or-


 

Live Flight TrackerFlight Track Log ✈ LXJ342 ✈ 02-Jul-2013 ✈ KASE - KPLN

Flight Track Log - Related Links

Times and Time Zones

All times are in EDT time to prevent confusion due to time zone crossing. See the LXJ342 flight status page for this flight to view local times or setup timezone preferences in your user account.

Time Position Orientation Groundspeed Altitude Reporting Facility
EDT Latitude Longitude Course Direction KTS MPH feet Rate Location/Type
02:44PM 39.2542 -106.8769 298° West 180 207 41,000  Level Denver Center
02:45PM 39.2839 -106.9500 298° West 265 305 11,200 -12,780 Descending Denver Center
02:46PM 39.3239 -107.0261 304° West 268 308 14,600 2,040 Climbing Denver Center
02:47PM 39.4075 -107.0197 North 293 337 15,500 1,500 Climbing Denver Center
02:48PM 39.4981 -107.0072 North 310 357 18,000 2,520 Climbing Denver Center
02:49PM 39.6053 -106.9556 20° North 345 397 21,300 2,640 Climbing Denver Center
02:50PM 39.6464 -106.8528 63° Northeast 340 391 23,500 1,800 Climbing Denver Center
02:51PM 39.6908 -106.7397 63° Northeast 350 403 25,100 1,320 Climbing Denver Center
02:52PM 39.7358 -106.6128 65° Northeast 379 436 26,300 1,140 Climbing Denver Center
02:54PM 39.7986 -106.4536 63° Northeast  Level Estimated
02:54PM 39.7961 -106.3578 63° Northeast 409 471 28,800  Level Denver Center
02:55PM 39.8489 -106.1944 67° East 407 468 30,600 1,680 Climbing Denver Center
02:56PM 39.9053 -106.0339 65° Northeast 407 468 32,300 1,320 Climbing Denver Center
02:57PM 39.9528 -105.9031 65° Northeast 402 463 33,400 1,140 Climbing Denver Center
02:59PM 40.0039 -105.7589 65° Northeast 412 474 34,700 1,140 Climbing Denver Center
03:00PM 40.0517 -105.6275 65° Northeast 405 466 35,800 900 Climbing Denver Center
03:01PM 40.0958 -105.4972 66° East 397 457 36,800 900 Climbing Denver Center
03:02PM 40.1467 -105.3589 64° Northeast 394 453 37,900 1,080 Climbing Denver Center
03:03PM 40.1992 -105.2058 66° East 377 434 39,100 840 Climbing Denver Center
03:04PM 40.2433 -105.0817 65° Northeast 378 435 39,700 540 Climbing Denver Center
03:05PM 40.2892 -104.9511 65° Northeast 368 423 40,300 420 Climbing Denver Center
03:06PM 40.3319 -104.8247 66° East 378 435 40,600 240 Climbing Denver Center
03:07PM 40.3744 -104.6997 66° East 377 434 40,900 180 Climbing Denver Center
03:08PM 40.4108 -104.5928 66° East 379 436 41,000  Climbing Denver Center
03:09PM 40.4636 -104.4361 66° East 382 440 41,000  Level Denver Center
03:10PM 40.5125 -104.3033 64° Northeast 380 437 41,000  Level Denver Center
03:11PM 40.5442 -104.1600 74° East 407 468 41,000  Level Denver Center
03:12PM 40.5842 -104.0239 69° East 378 435 41,000  Level Denver Center
03:13PM 40.6278 -103.8961 66° East 397 457 41,000  Level Denver Center
03:14PM 40.6764 -103.7475 67° East 397 457 41,000  Level Denver Center
03:15PM 40.7181 -103.6231 66° East 390 449 41,000  Level Denver Center
03:16PM 40.7742 -103.4556 66° East 391 450 41,000  Level Denver Center
03:18PM 40.8142 -103.3303 67° East 388 447 41,000  Level Denver Center
03:19PM 40.8608 -103.1842 67° East 388 447 41,000  Level Denver Center
03:20PM 40.9025 -103.0572 66° East 393 452 41,000  Level Denver Center
03:21PM 40.9486 -102.9167 66° East 399 459 41,000  Level Denver Center
03:22PM 40.9967 -102.7656 67° East 401 461 41,000  Level Denver Center
03:23PM 41.0375 -102.6356 67° East 400 460 41,000  Level Denver Center
03:24PM 41.0800 -102.5039 67° East 403 464 41,000  Level Denver Center
03:25PM 41.1286 -102.3492 67° East 407 468 41,000  Level Denver Center
03:26PM 41.1711 -102.2147 67° East 410 472 41,000  Level Denver Center
03:27PM 41.2214 -102.0567 67° East 413 475 41,000  Level Denver Center
03:28PM 41.2778 -101.8753 67° East 415 478 41,000  Level Denver Center
03:29PM 41.3214 -101.7389 67° East 417 480 41,000  Level Denver Center
03:30PM 41.3631 -101.6008 68° East 418 481 41,000  Level Denver Center
03:31PM 41.4136 -101.4397 67° East 421 484 41,000  Level Denver Center
03:32PM 41.4556 -101.3017 68° East 419 482 41,000  Level Denver Center
03:33PM 41.5044 -101.1394 68° East 420 483 41,000  Level Denver Center
03:34PM 41.5461 -101.0000 68° East 422 486 41,000  Level Denver Center
03:35PM 41.5808 -100.8842 68° East 420 483 41,000  Level Denver Center
03:36PM 41.6369 -100.6978 68° East 421 484 41,000  Level Denver Center
03:37PM 41.6844 -100.5356 69° East 420 483 41,000  Level Denver Center
03:38PM 41.7258 -100.3961 68° East 420 483 41,000  Level Denver Center
03:39PM 41.7669 -100.2539 69° East 425 489 41,000  Level Denver Center
03:40PM 41.8147 -100.0900 69° East 423 487 41,000  Level Denver Center
03:41PM 41.8561 -99.9467 69° East 429 494 41,000  Level Denver Center
03:43PM 41.9036 -99.7814 69° East 426 490 41,000  Level Denver Center
03:44PM 41.9578 -99.5900 69° East 429 494 41,000  Level Denver Center
03:45PM 42.0000 -99.4408 69° East 426 490 41,000  Level Denver Center
03:46PM 42.0422 -99.2917 69° East 426 490 41,000  Level Denver Center
03:47PM 42.0847 -99.1394 69° East 430 495 41,000  Level Denver Center
03:48PM 42.1194 -99.0222 68° East 426 490 41,000  Level Minneapolis Center
03:49PM 42.1686 -98.8389 70° East 431 496 41,000  Level Minneapolis Center
03:50PM 42.2108 -98.6875 69° East 432 497 41,000  Level Minneapolis Center
03:51PM 42.2444 -98.5669 69° East 429 494 41,000  Level Minneapolis Center
03:52PM 42.2936 -98.3831 70° East 432 497 41,000  Level Minneapolis Center
03:53PM 42.3358 -98.2289 70° East 436 502 41,000  Level Minneapolis Center
03:54PM 42.3769 -98.0753 70° East 435 501 41,000  Level Minneapolis Center
03:55PM 42.4186 -97.9208 70° East 436 502 41,000  Level Minneapolis Center
03:56PM 42.4644 -97.7436 71° East 436 502 41,000  Level Minneapolis Center
03:57PM 42.5056 -97.5906 70° East 434 499 41,000  Level Minneapolis Center
03:58PM 42.5450 -97.4358 71° East 433 498 41,000  Level Minneapolis Center
03:59PM 42.5858 -97.2814 70° East 434 499 41,000  Level Minneapolis Center
04:00PM 42.6256 -97.1281 71° East 430 495 41,000  Level Minneapolis Center
04:01PM 42.6733 -96.9414 71° East 433 498 41,000  Level Minneapolis Center
04:02PM 42.7133 -96.7978 69° East 439 505 41,000  Level Minneapolis Center
04:03PM 42.7769 -96.6592 58° Northeast 436 502 41,000  Level Minneapolis Center
04:04PM 42.8481 -96.4892 60° Northeast 434 499 41,000  Level Minneapolis Center
04:05PM 42.9092 -96.3481 59° Northeast 435 501 41,000  Level Minneapolis Center
04:06PM 42.9703 -96.2056 60° Northeast 437 503 41,000  Level Minneapolis Center
04:07PM 43.0325 -96.0664 80° East 434 499 41,000  Level Minneapolis Center
04:08PM 42.9928 -96.0337 80° East  Level FlightAware Approximate
04:08PM 43.0956 -95.9239 59° Northeast 438 504 41,000  Level Minneapolis Center
04:09PM 43.1706 -95.7558 58° Northeast 436 502 41,000  Level Minneapolis Center
04:11PM 43.2333 -95.6131 59° Northeast 438 504 41,000  Level Minneapolis Center
04:12PM 43.2881 -95.4633 63° Northeast 440 506 41,000  Level Minneapolis Center
04:13PM 43.3203 -95.3036 74° East 439 505 41,000  Level Minneapolis Center
04:14PM 43.3544 -95.1431 74° East 440 506 41,000  Level Minneapolis Center
04:15PM 43.3944 -94.9464 74° East 446 513 41,000  Level Minneapolis Center
04:16PM 43.4272 -94.7844 74° East 443 510 41,000  Level Minneapolis Center
04:17PM 43.4608 -94.6225 74° East 442 509 41,000  Level Minneapolis Center
04:18PM 43.4931 -94.4594 75° East 443 510 41,000  Level Minneapolis Center
04:19PM 43.5267 -94.2969 74° East 443 510 41,000  Level Minneapolis Center
04:20PM 43.5619 -94.1178 75° East 444 511 41,000  Level Minneapolis Center
04:21PM 43.5939 -93.9539 75° East 445 512 41,000  Level Minneapolis Center
04:22PM 43.6247 -93.7897 75° East 444 511 41,000  Level Minneapolis Center
04:23PM 43.6506 -93.6603 75° East 444 511 41,000  Level Minneapolis Center
04:24PM 43.6939 -93.4311 75° East 443 510 41,000  Level Minneapolis Center
04:25PM 43.7247 -93.2672 75° East 445 512 41,000  Level Minneapolis Center
04:26PM 43.7558 -93.1025 75° East 445 512 41,000  Level Minneapolis Center
04:27PM 43.7875 -92.9369 75° East 446 513 41,000  Level Minneapolis Center
04:28PM 43.8175 -92.7725 76° East 447 514 41,000  Level Minneapolis Center
04:29PM 43.8528 -92.5756 76° East 444 511 41,000  Level Minneapolis Center
04:30PM 43.8917 -92.3744 75° East 451 519 41,000  Level Minneapolis Center
04:31PM 43.9367 -92.2144 69° East 449 517 41,000  Level Minneapolis Center
04:32PM 43.9778 -92.0508 71° East 450 518 41,000  Level Minneapolis Center
04:33PM 44.0292 -91.8544 70° East 453 521 41,000  Level Minneapolis Center
04:35PM 44.0703 -91.6894 71° East 454 522 41,000  Level Minneapolis Center
04:36PM 44.1136 -91.5247 70° East 454 522 41,000  Level Minneapolis Center
04:37PM 44.1556 -91.3589 71° East 456 525 41,000  Level Minneapolis Center
04:38PM 44.1969 -91.1917 71° East 455 524 41,000  Level Minneapolis Center
04:39PM 44.2381 -91.0267 71° East 454 522 41,000  Level Minneapolis Center
04:40PM 44.2872 -90.8278 71° East 455 524 41,000  Level Minneapolis Center
04:41PM 44.3258 -90.6658 72° East 455 524 41,000  Level Minneapolis Center
04:42PM 44.3644 -90.4997 72° East 452 520 41,000  Level Minneapolis Center
04:43PM 44.4064 -90.3281 71° East 461 531 41,000  Level Minneapolis Center
04:44PM 44.4539 -90.1300 71° East 460 529 41,000  Level Minneapolis Center
04:45PM 44.4931 -89.9600 72° East 457 526 41,000  Level Minneapolis Center
04:46PM 44.5344 -89.7858 72° East 464 534 41,000  Level Minneapolis Center
04:47PM 44.5736 -89.6156 72° East 460 529 41,000  Level Minneapolis Center
04:48PM 44.6128 -89.4450 72° East 458 527 41,000  Level Minneapolis Center
04:49PM 44.6531 -89.2708 72° East 464 534 41,000  Level Minneapolis Center
04:50PM 44.6986 -89.0686 72° East 464 534 41,000  Level Minneapolis Center
04:51PM 44.7381 -88.8944 72° East 465 535 41,000  Level Minneapolis Center
04:52PM 44.7769 -88.7200 73° East 467 537 41,000  Level Minneapolis Center
04:53PM 44.8158 -88.5444 73° East 468 539 41,000  Level Minneapolis Center
04:54PM 44.8544 -88.3697 73° East 467 537 41,000  Level Minneapolis Center
04:55PM 44.9019 -88.1486 73° East 468 539 41,000  Level Minneapolis Center
04:56PM 44.9397 -87.9747 73° East 465 535 41,000  Level Minneapolis Center
04:57PM 44.9778 -87.8000 73° East 466 536 41,000  Level Minneapolis Center
04:59PM 45.0203 -87.5878 74° East 469 540 41,000  Level Minneapolis Center
05:00PM 45.0669 -87.3753 73° East 471 542 41,000  Level Minneapolis Center
05:01PM 45.1036 -87.1983 74° East 469 540 41,000 -120 Level Minneapolis Center
05:02PM 45.1408 -87.0206 73° East 469 540 40,800 -600 Descending Minneapolis Center
05:03PM 45.1772 -86.8411 74° East 473 544 39,800 -1,080 Descending Minneapolis Center
05:04PM 45.2139 -86.6606 74° East 475 547 38,600 -1,080 Descending Minneapolis Center
05:05PM 45.2489 -86.4836 74° East 468 539 37,600 -1,380 Descending Minneapolis Center
05:06PM 45.2917 -86.2711 74° East 464 534 35,800 -2,340 Descending Minneapolis Center
05:07PM 45.3275 -86.0864 75° East 478 550 32,800 -3,180 Descending Minneapolis Center
05:08PM 45.3639 -85.9022 74° East 481 554 29,300 -3,420 Descending Minneapolis Center
05:09PM 45.3978 -85.7256 75° East 470 541 25,800 -3,360 Descending Minneapolis Center
05:10PM 45.4289 -85.5533 76° East 456 525 22,400 -2,040 Descending Minneapolis Center
05:11PM 45.4603 -85.4031 73° East 412 474 21,700 -1,980 Descending Minneapolis Center
05:12PM 45.4894 -85.2517 75° East 399 459 18,400 -3,540 Descending Minneapolis Center
05:13PM 45.5317 -85.0761 71° East 395 455 14,500 -3,600 Descending Minneapolis Center
05:14PM 45.6114 -84.9856 38° Northeast 373 429 11,000 -3,240 Descending Minneapolis Center
05:15PM 45.6861 -84.9114 35° Northeast 314 361 7,900 -2,700 Descending Minneapolis Center
05:17PM 45.7569 -84.8508 31° Northeast 282 325 5,000 -1,800 Descending Minneapolis Center
05:18PM 45.8233 -84.7953 30° Northeast 230 265 3,900 -720 Descending Minneapolis Center
05:19PM 45.8708 -84.7544 31° Northeast 224 258 3,600 -240 Descending Minneapolis Center
05:21PM 45.6987 -84.7090 199° South  Level FlightAware Approximate
05:22PM 45.8019 -84.6011 193° South 212 244 3,000  Level Minneapolis Center
05:24PM 45.7011 -84.7078 199° South  Level FlightAware Approximate
05:28PM 45.5667 -84.7833 193° South  Level FlightAware Approximate
05:31PM 45.5667 -84.7833 193° South  Level FlightAware Approximate
05:32PM 45.5709 -84.7967 193° South  Level Estimated
05:33PM 45.5709 -84.7967 193° South  Level Estimated